Time;durP1;ratioP1;P1;durP2;ratioP2;P2;SDS_P1;SDS_P2;PMS_P1;PMS_P2;Temp;Humidity;BMP_temperature;BMP_pressure;BME280_temperature;BME280_humidity;BME280_pressure;Samples;Min_cycle;Max_cycle;Signal;HPM_P1;HPM_P2
2022/10/28 00:00:53;;;;;;;5.43;4.87;;;14.70;1.00;;;;;;5051771;28;20519;-77
2022/10/28 00:03:18;;;;;;;15.33;4.10;;;14.80;1.00;;;;;;5052402;28;20527;-81
2022/10/28 00:05:44;;;;;;;8.93;5.57;;;14.80;1.00;;;;;;5041418;28;20297;-77
2022/10/28 00:08:10;;;;;;;4.97;4.57;;;14.80;1.00;;;;;;5041435;28;20202;-77
2022/10/28 00:10:36;;;;;;;7.53;5.53;;;14.80;1.00;;;;;;5037119;28;20426;-77
2022/10/28 00:13:02;;;;;;;5.83;5.10;;;14.80;1.00;;;;;;5048891;28;20425;-73
2022/10/28 00:15:28;;;;;;;6.67;4.80;;;14.70;1.00;;;;;;5038481;28;20784;-78
2022/10/28 00:17:54;;;;;;;14.43;6.53;;;14.70;1.00;;;;;;5042224;28;20233;-75
2022/10/28 00:20:19;;;;;;;11.67;5.70;;;14.70;1.00;;;;;;5056005;28;20254;-74
2022/10/28 00:22:45;;;;;;;9.77;4.27;;;14.70;1.00;;;;;;5055233;28;20178;-77
2022/10/28 00:25:11;;;;;;;10.30;5.10;;;14.70;1.00;;;;;;5052529;28;20236;-74
2022/10/28 00:27:37;;;;;;;5.27;4.77;;;14.70;1.00;;;;;;5051991;28;20175;-77
2022/10/28 00:30:03;;;;;;;6.33;4.47;;;14.60;1.00;;;;;;5051778;28;20206;-73
2022/10/28 00:32:29;;;;;;;9.20;5.30;;;14.60;1.00;;;;;;5046450;28;20179;-78
2022/10/28 00:34:54;;;;;;;8.33;4.60;;;14.50;1.00;;;;;;5041905;28;20434;-75
2022/10/28 00:37:20;;;;;;;5.67;5.00;;;14.50;1.00;;;;;;5046259;28;20448;-74
2022/10/28 00:39:46;;;;;;;4.17;3.83;;;14.50;1.00;;;;;;5053599;28;20175;-79
2022/10/28 00:42:17;;;;;;;5.67;5.17;;;14.50;1.00;;;;;;5041485;28;20183;-78
2022/10/28 00:44:56;;;;;;;9.17;5.43;;;14.40;1.00;;;;;;5046324;28;20282;-74
2022/10/28 00:47:33;;;;;;;7.27;4.90;;;14.40;1.00;;;;;;5054696;28;20949;-77
2022/10/28 00:50:37;;;;;;;10.37;5.50;;;14.40;1.00;;;;;;5039677;28;20549;-78
2022/10/28 00:53:16;;;;;;;8.67;5.80;;;14.40;1.00;;;;;;5048304;28;20839;-78
2022/10/28 00:55:43;;;;;;;5.63;5.10;;;14.40;1.00;;;;;;5036979;28;20466;-78
2022/10/28 00:58:09;;;;;;;6.43;5.03;;;14.40;1.00;;;;;;5050011;28;20487;-74
2022/10/28 01:00:35;;;;;;;5.47;4.97;;;14.40;1.00;;;;;;5055574;28;20405;-77
2022/10/28 01:03:01;;;;;;;7.10;4.90;;;14.50;1.00;;;;;;5051911;28;20459;-78
2022/10/28 01:05:30;;;;;;;6.00;5.40;;;14.50;1.00;;;;;;5054584;28;20675;-75
2022/10/28 01:07:59;;;;;;;5.97;5.37;;;14.50;1.00;;;;;;5054432;28;20186;-79
2022/10/28 01:10:47;;;;;;;6.63;5.67;;;14.50;1.00;;;;;;5049637;28;20495;-76
2022/10/28 01:13:38;;;;;;;7.50;5.77;;;14.40;1.00;;;;;;5034801;28;20926;-78
2022/10/28 01:16:37;;;;;;;8.73;6.03;;;14.40;1.00;;;;;;5038935;28;20457;-74
2022/10/28 01:19:40;;;;;;;5.90;5.37;;;14.40;1.00;;;;;;5046777;28;20430;-74
2022/10/28 01:22:26;;;;;;;7.23;5.10;;;14.40;1.00;;;;;;5036027;28;20484;-75
2022/10/28 01:25:32;;;;;;;9.93;5.13;;;14.40;1.00;;;;;;5037000;28;20817;-75
2022/10/28 01:28:27;;;;;;;7.77;5.40;;;14.30;1.00;;;;;;5049537;28;20433;-79
2022/10/28 01:31:04;;;;;;;7.90;5.43;;;14.30;1.00;;;;;;5049963;28;20442;-74
2022/10/28 01:33:35;;;;;;;8.20;5.73;;;14.20;1.00;;;;;;5040647;28;20478;-75
2022/10/28 01:36:35;;;;;;;6.73;6.10;;;14.20;1.00;;;;;;5053429;28;20440;-79
2022/10/28 01:39:32;;;;;;;6.33;5.70;;;14.20;1.00;;;;;;5050048;28;21005;-77
2022/10/28 01:42:12;;;;;;;10.47;5.40;;;14.10;1.00;;;;;;5048266;28;20558;-78
2022/10/28 01:45:06;;;;;;;5.47;4.90;;;14.10;1.00;;;;;;5043772;28;20461;-78
2022/10/28 01:47:41;;;;;;;8.10;5.60;;;14.10;1.00;;;;;;5034159;28;20421;-79
2022/10/28 01:50:17;;;;;;;8.17;5.97;;;14.10;1.00;;;;;;5049926;28;20505;-75
2022/10/28 01:52:45;;;;;;;6.33;5.40;;;14.10;1.00;;;;;;5039357;28;20761;-74
2022/10/28 01:55:16;;;;;;;8.77;6.27;;;14.10;1.00;;;;;;5052050;28;20806;-74
2022/10/28 01:57:42;;;;;;;8.17;5.53;;;14.10;1.00;;;;;;5053443;28;20789;-77
2022/10/28 02:00:09;;;;;;;10.00;5.87;;;14.00;1.00;;;;;;5053252;28;20523;-77
2022/10/28 02:02:37;;;;;;;9.43;5.67;;;14.00;1.00;;;;;;5052560;28;20190;-74
2022/10/28 02:05:40;;;;;;;9.17;6.80;;;14.00;1.00;;;;;;5051865;28;20838;-74
2022/10/28 02:08:17;;;;;;;6.60;6.00;;;14.00;1.00;;;;;;5053655;28;20401;-76
2022/10/28 02:11:05;;;;;;;6.17;5.57;;;14.00;1.00;;;;;;5051781;28;20756;-77
2022/10/28 02:13:37;;;;;;;8.40;6.33;;;14.00;1.00;;;;;;5040514;28;20931;-77
2022/10/28 02:16:22;;;;;;;7.67;5.60;;;14.10;1.00;;;;;;5034826;28;20446;-74
2022/10/28 02:19:02;;;;;;;13.40;6.60;;;14.10;1.00;;;;;;5034344;28;20442;-78
2022/10/28 02:21:55;;;;;;;8.23;6.03;;;14.00;1.00;;;;;;5043005;28;20583;-78
2022/10/28 02:24:31;;;;;;;9.87;6.63;;;14.00;1.00;;;;;;5051998;28;20436;-77
2022/10/28 02:27:09;;;;;;;6.83;5.40;;;14.00;1.00;;;;;;5050655;28;20506;-77
2022/10/28 02:29:49;;;;;;;11.43;7.60;;;14.00;1.00;;;;;;5034365;28;20425;-74
2022/10/28 02:32:21;;;;;;;8.17;6.70;;;14.00;1.00;;;;;;5047429;28;20817;-78
2022/10/28 02:34:51;;;;;;;6.67;6.00;;;14.10;1.00;;;;;;5052849;28;20405;-77
2022/10/28 02:37:32;;;;;;;10.30;6.20;;;14.10;1.00;;;;;;5052581;28;20540;-77
2022/10/28 02:40:01;;;;;;;5.87;5.37;;;14.00;1.00;;;;;;5052807;28;20436;-75
2022/10/28 02:42:34;;;;;;;8.77;6.00;;;14.10;1.00;;;;;;5049097;28;20433;-75
2022/10/28 02:45:17;;;;;;;9.40;5.87;;;14.10;1.00;;;;;;5032716;28;20461;-74
2022/10/28 02:47:47;;;;;;;7.13;6.47;;;14.10;1.00;;;;;;5049858;28;20461;-74
2022/10/28 02:50:17;;;;;;;6.40;5.80;;;14.00;1.00;;;;;;5033588;28;20422;-74
2022/10/28 02:52:48;;;;;;;7.00;6.10;;;13.90;1.00;;;;;;5049688;28;20422;-77
2022/10/28 02:55:13;;;;;;;5.90;5.40;;;13.90;1.00;;;;;;5050874;28;20490;-74
2022/10/28 02:57:47;;;;;;;6.70;5.93;;;13.80;1.00;;;;;;5052344;28;20437;-74
2022/10/28 03:00:19;;;;;;;7.90;6.50;;;13.80;1.00;;;;;;5041435;28;20175;-74
2022/10/28 03:02:45;;;;;;;9.03;6.20;;;13.70;1.00;;;;;;5052671;28;20433;-79
2022/10/28 03:05:11;;;;;;;8.97;7.23;;;13.70;1.00;;;;;;5051792;28;20544;-74
2022/10/28 03:07:37;;;;;;;7.87;5.70;;;13.60;1.00;;;;;;5052812;28;20559;-77
2022/10/28 03:10:03;;;;;;;7.37;6.13;;;13.60;1.00;;;;;;5052001;28;20182;-77
2022/10/28 03:12:28;;;;;;;7.90;6.50;;;13.60;1.00;;;;;;5048453;28;20176;-77
2022/10/28 03:14:54;;;;;;;8.50;6.60;;;13.60;1.00;;;;;;5040650;28;20479;-74
2022/10/28 03:17:19;;;;;;;7.00;6.13;;;13.60;1.00;;;;;;5053130;28;20194;-75
2022/10/28 03:19:45;;;;;;;8.60;6.40;;;13.60;1.00;;;;;;5052029;28;20236;-73
2022/10/28 03:22:11;;;;;;;6.90;5.87;;;13.70;1.00;;;;;;5050940;28;20183;-73
2022/10/28 03:24:36;;;;;;;7.33;6.40;;;13.70;1.00;;;;;;5043114;28;20525;-77
2022/10/28 03:27:02;;;;;;;6.53;5.90;;;13.70;1.00;;;;;;5052975;28;20195;-74
2022/10/28 03:29:28;;;;;;;8.87;6.00;;;13.80;1.00;;;;;;5051273;28;20221;-77
2022/10/28 03:31:53;;;;;;;15.60;5.97;;;13.80;1.00;;;;;;5053236;28;20221;-77
2022/10/28 03:34:19;;;;;;;8.87;6.33;;;13.80;1.00;;;;;;5051210;28;20183;-76
2022/10/28 03:36:45;;;;;;;13.43;7.97;;;13.70;1.00;;;;;;5045371;28;20670;-76
2022/10/28 03:39:10;;;;;;;10.30;7.50;;;13.80;1.00;;;;;;5055110;28;20639;-78
2022/10/28 03:41:36;;;;;;;10.97;7.47;;;13.80;1.00;;;;;;5050677;28;20186;-74
2022/10/28 03:44:01;;;;;;;9.67;7.30;;;13.80;1.00;;;;;;5046575;28;20220;-74
2022/10/28 03:46:27;;;;;;;8.63;6.40;;;13.80;1.00;;;;;;5056549;28;20194;-75
2022/10/28 03:48:53;;;;;;;11.33;7.80;;;13.80;1.00;;;;;;5055430;28;20619;-74
2022/10/28 03:51:18;;;;;;;9.60;7.07;;;13.80;1.00;;;;;;5055717;28;20190;-74
2022/10/28 03:53:44;;;;;;;8.17;7.03;;;13.90;1.00;;;;;;5054475;28;20175;-77
2022/10/28 03:56:11;;;;;;;16.27;9.80;;;13.90;1.00;;;;;;5051203;28;20206;-77
2022/10/28 03:58:36;;;;;;;17.90;8.20;;;13.90;1.00;;;;;;5040835;28;20186;-78
2022/10/28 04:01:03;;;;;;;7.37;6.63;;;13.90;1.00;;;;;;5057028;28;20921;-78
2022/10/28 04:03:28;;;;;;;9.60;6.80;;;13.90;1.00;;;;;;5055031;28;20210;-77
2022/10/28 04:05:54;;;;;;;7.50;6.03;;;13.90;1.00;;;;;;5036774;28;20443;-74
2022/10/28 04:08:20;;;;;;;6.90;6.20;;;13.90;1.00;;;;;;5042097;28;20182;-74
2022/10/28 04:10:46;;;;;;;7.03;6.30;;;14.00;1.00;;;;;;5055020;28;20194;-77
2022/10/28 04:13:13;;;;;;;10.67;6.60;;;14.00;1.00;;;;;;5043158;28;20503;-77
2022/10/28 04:15:39;;;;;;;7.63;5.87;;;14.00;1.00;;;;;;5047600;28;20461;-76
2022/10/28 04:18:05;;;;;;;9.30;7.40;;;14.00;1.00;;;;;;5052943;28;20460;-77
2022/10/28 04:20:31;;;;;;;10.70;8.40;;;14.10;1.00;;;;;;5051520;28;20233;-81
2022/10/28 04:22:57;;;;;;;17.27;8.60;;;14.10;1.00;;;;;;5051396;28;20421;-73
2022/10/28 04:25:24;;;;;;;10.77;9.10;;;14.10;1.00;;;;;;5051351;28;20530;-80
2022/10/28 04:27:50;;;;;;;12.20;8.90;;;14.10;1.00;;;;;;5050652;28;20475;-73
2022/10/28 04:30:16;;;;;;;9.27;7.47;;;14.10;1.00;;;;;;5037321;28;20433;-80
2022/10/28 04:32:43;;;;;;;9.73;6.63;;;14.10;1.00;;;;;;5037086;28;20934;-76
2022/10/28 04:35:09;;;;;;;8.33;7.53;;;14.10;1.00;;;;;;5034094;28;20832;-73
2022/10/28 04:37:35;;;;;;;7.93;6.67;;;14.10;1.00;;;;;;5046443;28;20487;-72
2022/10/28 04:40:02;;;;;;;11.70;7.97;;;14.10;1.00;;;;;;5054616;28;20926;-73
2022/10/28 04:42:27;;;;;;;22.60;8.57;;;14.10;1.00;;;;;;5055709;28;20179;-81
2022/10/28 04:44:53;;;;;;;14.67;9.80;;;14.10;1.00;;;;;;5054103;28;20519;-73
2022/10/28 04:47:19;;;;;;;12.40;9.07;;;14.10;1.00;;;;;;5056106;28;20203;-80
2022/10/28 04:49:44;;;;;;;12.13;9.20;;;14.10;1.00;;;;;;5054326;28;20194;-75
2022/10/28 04:52:10;;;;;;;9.73;8.37;;;14.10;1.00;;;;;;5048187;28;20184;-73
2022/10/28 04:54:36;;;;;;;11.13;7.13;;;14.00;1.00;;;;;;5038043;28;20656;-73
2022/10/28 04:57:01;;;;;;;10.30;8.33;;;14.00;1.00;;;;;;5042838;28;20537;-73
2022/10/28 04:59:27;;;;;;;10.80;7.93;;;14.00;1.00;;;;;;5053269;28;20571;-80
2022/10/28 05:01:53;;;;;;;13.40;9.10;;;13.90;1.00;;;;;;5068196;28;20179;-80
2022/10/28 05:04:18;;;;;;;12.20;8.97;;;13.90;1.00;;;;;;5053535;28;20609;-80
2022/10/28 05:06:44;;;;;;;11.90;7.03;;;13.90;1.00;;;;;;5049912;28;20215;-73
2022/10/28 05:09:10;;;;;;;7.10;6.40;;;13.80;1.00;;;;;;5054861;28;20537;-73
2022/10/28 05:11:36;;;;;;;9.87;6.30;;;13.80;1.00;;;;;;5051763;28;20219;-80
2022/10/28 05:14:01;;;;;;;7.20;6.60;;;13.80;1.00;;;;;;5046085;28;20211;-80
2022/10/28 05:16:27;;;;;;;9.37;7.33;;;13.70;1.00;;;;;;5036230;28;20191;-73
2022/10/28 05:18:53;;;;;;;10.50;6.40;;;13.80;1.00;;;;;;5054653;28;20182;-81
2022/10/28 05:21:18;;;;;;;18.10;8.57;;;13.70;1.00;;;;;;5053608;28;20258;-81
2022/10/28 05:23:45;;;;;;;10.33;8.27;;;13.70;1.00;;;;;;5053596;28;20205;-80
2022/10/28 05:26:11;;;;;;;12.07;7.13;;;13.80;1.00;;;;;;5047415;28;20210;-80
2022/10/28 05:28:37;;;;;;;8.90;7.73;;;13.80;1.00;;;;;;5049303;28;20434;-73
2022/10/28 05:31:03;;;;;;;10.47;8.13;;;13.80;1.80;;;;;;5035861;28;20258;-78
2022/10/28 05:33:28;;;;;;;12.27;8.50;;;13.80;2.90;;;;;;5034947;28;20183;-77
2022/10/28 05:35:54;;;;;;;12.07;8.60;;;13.90;12.50;;;;;;5036270;28;20253;-76
2022/10/28 05:38:20;;;;;;;9.67;8.20;;;13.90;12.60;;;;;;5052398;28;20261;-81
2022/10/28 05:40:45;;;;;;;12.70;8.47;;;13.90;22.10;;;;;;5053866;28;20171;-80
2022/10/28 05:43:11;;;;;;;11.97;7.97;;;14.00;32.10;;;;;;5053283;28;20192;-78
2022/10/28 05:45:37;;;;;;;12.77;10.13;;;14.00;35.80;;;;;;5048172;28;20312;-73
2022/10/28 05:48:03;;;;;;;10.30;8.60;;;14.00;38.00;;;;;;5049415;28;20696;-78
2022/10/28 05:50:29;;;;;;;13.20;7.87;;;14.10;47.00;;;;;;5054384;28;20179;-79
2022/10/28 05:52:55;;;;;;;8.73;7.83;;;14.10;53.20;;;;;;5046149;28;20215;-75
2022/10/28 05:55:24;;;;;;;9.27;7.90;;;14.10;56.00;;;;;;5053882;28;20245;-79
2022/10/28 05:57:51;;;;;;;8.07;7.23;;;14.10;64.00;;;;;;5039958;28;20418;-73
2022/10/28 06:00:18;;;;;;;8.47;7.57;;;14.10;65.70;;;;;;5039473;28;20428;-79
2022/10/28 06:02:44;;;;;;;7.47;6.67;;;14.10;70.50;;;;;;5049677;28;20444;-73
2022/10/28 06:05:11;;;;;;;12.83;8.93;;;14.10;77.50;;;;;;5045375;28;20440;-73
2022/10/28 06:07:38;;;;;;;18.07;7.57;;;14.20;78.10;;;;;;5048573;28;20246;-73
2022/10/28 06:10:05;;;;;;;13.20;7.97;;;14.20;84.30;;;;;;5035030;28;21018;-79
2022/10/28 06:12:34;;;;;;;12.40;8.20;;;14.20;87.20;;;;;;5053106;28;20421;-73
2022/10/28 06:15:00;;;;;;;16.60;9.10;;;14.30;86.60;;;;;;5053196;28;20410;-73
2022/10/28 06:17:26;;;;;;;10.63;7.13;;;14.20;88.90;;;;;;5051134;28;20434;-74
2022/10/28 06:19:52;;;;;;;8.63;6.43;;;14.30;85.30;;;;;;5033850;28;20417;-78
2022/10/28 06:22:18;;;;;;;7.07;6.00;;;14.20;90.80;;;;;;5051137;28;20191;-72
2022/10/28 06:24:44;;;;;;;7.43;6.50;;;14.20;92.30;;;;;;5035825;28;20234;-77
2022/10/28 06:27:10;;;;;;;11.33;7.30;;;14.10;91.50;;;;;;5051416;28;20437;-74
2022/10/28 06:29:35;;;;;;;7.10;6.43;;;14.10;90.50;;;;;;5050219;28;20182;-80
2022/10/28 06:32:01;;;;;;;8.37;7.40;;;14.10;85.60;;;;;;5055498;28;20190;-72
2022/10/28 06:34:27;;;;;;;9.20;6.93;;;14.10;85.50;;;;;;5043137;28;20535;-73
2022/10/28 06:36:53;;;;;;;8.43;6.70;;;14.10;83.80;;;;;;5052542;28;20210;-72
2022/10/28 06:39:19;;;;;;;6.33;5.80;;;14.10;90.80;;;;;;5052261;28;20178;-75
2022/10/28 06:41:45;;;;;;;6.63;5.90;;;14.10;91.80;;;;;;5054062;28;20942;-78
2022/10/28 06:44:10;;;;;;;6.90;6.30;;;14.10;90.20;;;;;;5051901;28;20570;-78
2022/10/28 06:46:36;;;;;;;9.30;6.70;;;14.00;85.90;;;;;;5054874;28;20420;-78
2022/10/28 06:49:02;;;;;;;7.77;6.40;;;14.00;84.10;;;;;;5053818;28;20212;-78
2022/10/28 06:51:28;;;;;;;6.83;6.17;;;13.90;83.30;;;;;;5053602;28;20528;-72
2022/10/28 06:53:54;;;;;;;7.50;6.00;;;13.90;83.20;;;;;;5052716;28;20379;-74
2022/10/28 06:56:20;;;;;;;8.27;6.43;;;13.90;75.90;;;;;;5053342;28;20396;-78
2022/10/28 06:58:50;;;;;;;7.87;6.57;;;13.80;70.60;;;;;;5052436;28;20187;-78
2022/10/28 07:01:15;;;;;;;7.97;6.20;;;13.80;77.20;;;;;;5051358;28;20203;-78
2022/10/28 07:03:41;;;;;;;7.60;6.30;;;13.80;68.10;;;;;;5052626;28;20866;-78
2022/10/28 07:06:06;;;;;;;5.67;5.10;;;13.80;71.10;;;;;;5053345;28;20218;-72
2022/10/28 07:08:32;;;;;;;9.33;6.70;;;13.80;64.20;;;;;;5053229;28;20167;-78
2022/10/28 07:10:59;;;;;;;9.37;7.20;;;13.80;64.10;;;;;;5052344;28;20163;-72
2022/10/28 07:13:25;;;;;;;11.63;5.53;;;13.90;71.20;;;;;;5053198;28;20166;-78
2022/10/28 07:15:56;;;;;;;8.20;6.70;;;14.00;70.00;;;;;;5052262;28;20963;-73
2022/10/28 07:18:22;;;;;;;9.93;7.27;;;14.00;82.20;;;;;;5053335;28;20429;-78
2022/10/28 07:20:48;;;;;;;7.83;6.83;;;14.00;83.50;;;;;;5053151;28;20401;-73
2022/10/28 07:23:14;;;;;;;10.90;6.87;;;14.10;83.70;;;;;;5053322;28;20486;-78
2022/10/28 07:25:39;;;;;;;9.80;6.97;;;14.10;83.70;;;;;;5051058;28;20483;-76
2022/10/28 07:28:05;;;;;;;10.47;7.80;;;14.20;89.20;;;;;;5052115;28;20574;-72
2022/10/28 07:30:31;;;;;;;7.87;6.30;;;14.20;92.30;;;;;;5053262;28;20171;-74
2022/10/28 07:33:00;;;;;;;7.17;6.57;;;14.30;92.30;;;;;;5053193;28;20175;-78
2022/10/28 07:35:27;;;;;;;11.93;7.37;;;14.30;93.20;;;;;;5051973;28;20236;-80
2022/10/28 07:37:52;;;;;;;7.10;6.13;;;14.30;97.00;;;;;;5052786;28;20436;-77
2022/10/28 07:40:20;;;;;;;9.13;6.37;;;14.30;94.00;;;;;;5052133;28;20433;-77
2022/10/28 07:42:46;;;;;;;9.70;6.13;;;14.40;98.10;;;;;;5048490;28;20632;-78
2022/10/28 07:45:12;;;;;;;7.93;7.13;;;14.40;97.10;;;;;;5032104;28;20449;-77
2022/10/28 07:47:37;;;;;;;8.13;6.50;;;14.50;99.10;;;;;;5033279;28;20159;-73
2022/10/28 07:50:05;;;;;;;7.17;5.60;;;14.50;99.90;;;;;;5033181;28;20485;-78
2022/10/28 07:52:30;;;;;;;8.80;6.40;;;14.60;97.00;;;;;;5032751;28;20655;-74
2022/10/28 07:54:56;;;;;;;11.57;6.90;;;14.60;98.30;;;;;;5036257;28;20421;-76
2022/10/28 07:57:22;;;;;;;8.37;6.87;;;14.60;97.70;;;;;;5052512;28;20198;-73
2022/10/28 07:59:48;;;;;;;8.17;6.90;;;14.70;96.80;;;;;;5049952;28;20595;-78
2022/10/28 08:02:20;;;;;;;12.20;7.93;;;14.70;92.90;;;;;;5052025;28;20178;-78
2022/10/28 08:04:45;;;;;;;8.90;6.80;;;14.80;95.70;;;;;;5050385;28;20213;-78
2022/10/28 08:07:12;;;;;;;8.93;7.27;;;14.80;99.90;;;;;;5049149;28;20519;-74
2022/10/28 08:09:38;;;;;;;15.50;7.43;;;15.00;94.10;;;;;;5050632;28;20639;-79
2022/10/28 08:12:04;;;;;;;7.77;6.93;;;15.00;99.90;;;;;;5051717;28;20423;-74
2022/10/28 08:14:30;;;;;;;16.20;7.47;;;15.10;98.10;;;;;;5051648;28;20918;-72
2022/10/28 08:16:56;;;;;;;8.53;6.07;;;15.10;85.00;;;;;;5052599;28;20414;-78
2022/10/28 08:19:21;;;;;;;8.53;6.20;;;15.30;84.20;;;;;;5052368;28;20647;-78
2022/10/28 08:21:47;;;;;;;12.20;6.83;;;15.40;83.60;;;;;;5051603;28;20258;-74
2022/10/28 08:24:13;;;;;;;7.30;5.80;;;15.40;72.70;;;;;;5053448;28;20190;-77
2022/10/28 08:26:38;;;;;;;10.30;6.53;;;15.50;70.90;;;;;;5056095;28;20581;-73
2022/10/28 08:29:04;;;;;;;10.97;6.47;;;15.70;51.60;;;;;;5054460;28;20178;-78
2022/10/28 08:31:32;;;;;;;11.20;6.30;;;15.80;38.10;;;;;;5055505;28;20174;-78
2022/10/28 08:33:57;;;;;;;7.13;5.00;;;15.90;25.00;;;;;;5054003;28;20330;-74
2022/10/28 08:36:23;;;;;;;8.27;5.90;;;15.90;1.00;;;;;;5054854;28;20988;-78
2022/10/28 08:38:49;;;;;;;7.60;6.37;;;16.00;4.30;;;;;;5054035;28;20205;-73
2022/10/28 08:41:23;;;;;;;9.27;5.30;;;16.00;1.00;;;;;;5054703;28;20171;-73
2022/10/28 08:44:11;;;;;;;9.40;6.00;;;16.10;1.00;;;;;;5055253;28;20173;-73
2022/10/28 08:46:36;;;;;;;8.27;5.17;;;16.10;1.00;;;;;;5054555;28;20451;-78
2022/10/28 08:49:07;;;;;;;9.00;6.27;;;16.20;1.00;;;;;;5054409;28;20421;-74
2022/10/28 08:51:51;;;;;;;11.20;6.30;;;16.30;1.00;;;;;;5054368;28;20210;-74
2022/10/28 08:54:42;;;;;;;12.17;6.10;;;16.40;1.00;;;;;;5055102;28;20926;-73
2022/10/28 08:57:15;;;;;;;10.23;5.23;;;16.50;1.00;;;;;;5069150;28;20461;-77
2022/10/28 08:59:43;;;;;;;7.50;5.60;;;16.60;1.00;;;;;;5055663;28;20809;-78
2022/10/28 09:02:24;;;;;;;5.93;5.27;;;16.70;1.00;;;;;;5055161;28;20416;-73
2022/10/28 09:05:26;;;;;;;6.03;5.40;;;16.80;1.00;;;;;;5053248;28;20566;-76
2022/10/28 09:07:53;;;;;;;7.33;4.90;;;16.90;1.00;;;;;;5033523;28;20422;-78
2022/10/28 09:10:42;;;;;;;7.23;5.43;;;17.10;1.00;;;;;;5046094;28;20432;-77
2022/10/28 09:13:17;;;;;;;13.47;5.90;;;17.10;1.00;;;;;;5055595;28;20494;-73
2022/10/28 09:15:59;;;;;;;11.90;5.10;;;17.20;1.00;;;;;;5053797;28;20827;-79
2022/10/28 09:18:49;;;;;;;8.13;5.10;;;17.20;1.00;;;;;;5055734;28;20750;-73
2022/10/28 09:21:36;;;;;;;8.77;5.00;;;17.40;1.00;;;;;;5055139;28;20408;-73
2022/10/28 09:24:18;;;;;;;10.43;5.20;;;17.50;1.00;;;;;;5052839;28;20453;-78
2022/10/28 09:27:02;;;;;;;11.03;4.83;;;17.50;1.00;;;;;;5054783;28;20953;-77
2022/10/28 09:29:40;;;;;;;7.40;5.20;;;17.60;1.00;;;;;;5054743;28;20451;-77
2022/10/28 09:32:16;;;;;;;16.93;6.07;;;17.80;1.00;;;;;;5055123;28;20571;-76
2022/10/28 09:35:05;;;;;;;5.30;4.90;;;17.90;1.00;;;;;;5053548;28;20406;-73
2022/10/28 09:37:44;;;;;;;8.53;4.90;;;18.00;1.00;;;;;;5054778;28;20394;-74
2022/10/28 09:40:20;;;;;;;11.53;5.20;;;18.00;99.90;;;;;;5050340;28;20448;-76
2022/10/28 09:43:04;;;;;;;10.23;4.63;;;18.10;99.90;;;;;;5054612;28;20428;-71
2022/10/28 09:45:32;;;;;;;13.80;4.53;;;18.10;99.90;;;;;;5053411;28;20830;-73
2022/10/28 09:48:04;;;;;;;7.57;5.13;;;18.20;99.90;;;;;;5054518;28;20413;-75
2022/10/28 09:50:31;;;;;;;5.57;4.20;;;18.30;99.90;;;;;;5054906;28;20467;-75
2022/10/28 09:53:08;;;;;;;9.33;5.33;;;18.40;99.90;;;;;;5053344;28;20417;-74
2022/10/28 09:55:34;;;;;;;7.80;3.87;;;18.40;99.90;;;;;;5052719;28;20425;-78
2022/10/28 09:58:02;;;;;;;4.70;4.30;;;18.50;99.90;;;;;;5054266;28;20500;-74
2022/10/28 10:00:28;;;;;;;9.83;4.80;;;18.50;99.90;;;;;;5054728;28;20233;-73
2022/10/28 10:02:56;;;;;;;5.60;4.07;;;18.60;99.90;;;;;;5054214;28;20425;-77
2022/10/28 10:05:23;;;;;;;8.53;4.20;;;18.70;99.90;;;;;;5051993;28;20222;-73
2022/10/28 10:08:02;;;;;;;4.30;3.27;;;18.80;99.90;;;;;;5052868;28;20504;-73
2022/10/28 10:10:38;;;;;;;7.10;3.73;;;18.90;99.90;;;;;;5054299;28;20488;-72
2022/10/28 10:13:06;;;;;;;7.83;5.03;;;18.90;99.90;;;;;;5054061;28;20897;-76
2022/10/28 10:15:44;;;;;;;7.37;4.40;;;18.90;99.90;;;;;;5053284;28;20433;-76
2022/10/28 10:18:18;;;;;;;10.53;4.53;;;19.00;99.90;;;;;;5052544;28;20420;-77
2022/10/28 10:21:07;;;;;;;10.40;4.13;;;19.00;99.90;;;;;;5053525;28;20463;-73
2022/10/28 10:23:35;;;;;;;4.53;4.13;;;19.00;99.90;;;;;;5032682;28;20885;-74
2022/10/28 10:26:10;;;;;;;4.33;3.93;;;19.10;99.90;;;;;;5049918;28;20537;-78
2022/10/28 10:28:45;;;;;;;5.53;4.00;;;19.20;99.90;;;;;;5053949;28;20412;-74
2022/10/28 10:31:26;;;;;;;8.57;4.30;;;19.30;99.90;;;;;;5053751;28;20765;-78
2022/10/28 10:33:54;;;;;;;8.20;4.67;;;19.30;99.90;;;;;;5053164;28;20405;-73
2022/10/28 10:36:22;;;;;;;4.37;3.97;;;19.30;99.90;;;;;;5053471;28;20429;-78
2022/10/28 10:38:53;;;;;;;4.60;3.30;;;19.30;99.90;;;;;;5052240;28;20441;-74
2022/10/28 10:41:42;;;;;;;10.40;4.63;;;19.30;99.90;;;;;;5041215;28;20933;-78
2022/10/28 10:44:22;;;;;;;9.13;4.73;;;19.30;99.90;;;;;;5043431;28;20409;-77
2022/10/28 10:47:01;;;;;;;13.73;4.73;;;19.40;99.90;;;;;;5053154;28;20448;-74
2022/10/28 10:49:28;;;;;;;5.87;4.03;;;19.40;99.90;;;;;;5052108;28;20512;-76
2022/10/28 10:52:19;;;;;;;8.80;5.47;;;19.50;99.90;;;;;;5051544;28;20464;-76
2022/10/28 10:55:00;;;;;;;9.37;3.77;;;19.60;99.90;;;;;;5052371;28;20436;-77
2022/10/28 10:57:27;;;;;;;9.03;4.47;;;19.70;99.90;;;;;;5053378;28;20724;-76
2022/10/28 10:59:54;;;;;;;7.90;3.80;;;19.70;99.90;;;;;;5053001;28;20439;-76
2022/10/28 11:02:30;;;;;;;13.10;4.77;;;19.80;99.90;;;;;;5053546;28;20801;-77
2022/10/28 11:04:59;;;;;;;7.30;4.40;;;19.80;99.90;;;;;;5052287;28;20452;-77
2022/10/28 11:07:31;;;;;;;7.40;3.80;;;19.90;99.90;;;;;;5033604;28;20450;-73
2022/10/28 11:09:56;;;;;;;7.07;4.40;;;20.00;99.90;;;;;;5048808;28;20425;-73
2022/10/28 11:12:37;;;;;;;5.83;4.43;;;20.10;99.90;;;;;;5053188;28;20412;-77
2022/10/28 11:15:20;;;;;;;10.20;3.90;;;20.10;99.90;;;;;;5052094;28;20224;-77
2022/10/28 11:17:56;;;;;;;8.40;4.97;;;20.30;99.90;;;;;;5052914;28;20505;-73
2022/10/28 11:20:28;;;;;;;14.60;5.00;;;20.40;97.00;;;;;;5051962;28;20436;-76
2022/10/28 11:22:54;;;;;;;8.90;3.73;;;20.50;96.10;;;;;;5053193;28;20412;-74
2022/10/28 11:25:36;;;;;;;6.60;4.53;;;20.40;95.80;;;;;;5052076;28;20465;-78
2022/10/28 11:28:26;;;;;;;9.60;5.40;;;20.40;95.90;;;;;;5053311;28;20167;-73
2022/10/28 11:31:19;;;;;;;11.27;3.83;;;20.40;95.40;;;;;;5046682;28;20431;-77
2022/10/28 11:33:48;;;;;;;15.07;5.10;;;20.50;95.30;;;;;;5052040;28;20794;-77
2022/10/28 11:36:31;;;;;;;6.97;4.17;;;20.60;95.90;;;;;;5052807;28;20755;-73
2022/10/28 11:39:04;;;;;;;13.10;4.50;;;20.70;94.40;;;;;;5051792;28;20768;-74
2022/10/28 11:42:01;;;;;;;11.57;4.30;;;20.60;92.40;;;;;;5053196;28;20405;-76
2022/10/28 11:45:03;;;;;;;11.10;4.13;;;20.50;94.30;;;;;;5049516;28;20785;-74
2022/10/28 11:47:58;;;;;;;6.60;3.43;;;20.40;92.70;;;;;;5028566;28;20794;-77
2022/10/28 11:50:47;;;;;;;8.70;4.70;;;20.40;91.80;;;;;;5051809;28;20786;-77
2022/10/28 11:53:49;;;;;;;8.47;4.00;;;20.30;93.50;;;;;;5044170;28;20421;-78
2022/10/28 11:56:31;;;;;;;7.27;4.10;;;20.40;90.00;;;;;;5048877;28;20440;-73
2022/10/28 11:58:56;;;;;;;9.40;4.10;;;20.40;80.40;;;;;;5054683;28;20518;-77
2022/10/28 12:01:47;;;;;;;8.23;3.80;;;20.40;92.00;;;;;;5057206;28;20776;-73
2022/10/28 12:04:16;;;;;;;13.70;4.27;;;20.50;94.50;;;;;;5055403;28;20186;-73
2022/10/28 12:07:09;;;;;;;7.60;4.20;;;20.60;87.80;;;;;;5056573;28;20440;-74
2022/10/28 12:09:46;;;;;;;14.83;3.83;;;20.60;85.90;;;;;;5055415;28;20563;-76
2022/10/28 12:12:33;;;;;;;6.80;4.23;;;20.60;88.10;;;;;;5055925;28;20417;-73
2022/10/28 12:15:26;;;;;;;8.90;4.77;;;20.60;92.70;;;;;;5054233;28;20441;-74
2022/10/28 12:18:10;;;;;;;17.47;5.40;;;20.60;82.70;;;;;;5056289;28;20417;-73
2022/10/28 12:20:45;;;;;;;8.20;5.00;;;20.60;87.90;;;;;;5056413;28;20401;-77
2022/10/28 12:23:18;;;;;;;5.80;4.20;;;20.80;89.40;;;;;;5055886;28;20429;-76
2022/10/28 12:25:48;;;;;;;9.00;5.33;;;21.10;86.40;;;;;;5057126;28;20555;-76
2022/10/28 12:28:52;;;;;;;9.33;4.57;;;21.20;75.50;;;;;;5064827;28;20420;-72
2022/10/28 12:31:31;;;;;;;11.30;4.30;;;21.40;80.30;;;;;;5071888;28;21179;-73
2022/10/28 12:34:04;;;;;;;12.00;5.60;;;21.40;72.70;;;;;;5046424;28;20934;-73
2022/10/28 12:36:49;;;;;;;7.50;4.60;;;21.30;70.90;;;;;;5063145;28;20456;-73
2022/10/28 12:39:23;;;;;;;6.43;4.07;;;21.00;73.90;;;;;;5056146;28;20395;-76
2022/10/28 12:42:01;;;;;;;9.50;5.03;;;21.00;90.70;;;;;;5055750;28;20455;-73
2022/10/28 12:44:28;;;;;;;8.43;5.90;;;21.00;72.70;;;;;;5070177;28;20421;-73
2022/10/28 12:47:03;;;;;;;7.87;4.60;;;21.00;72.50;;;;;;5055720;28;20438;-75
2022/10/28 12:49:45;;;;;;;10.97;5.03;;;20.90;67.20;;;;;;5052861;28;20489;-77
2022/10/28 12:52:42;;;;;;;10.63;4.00;;;20.90;73.00;;;;;;5055371;28;20417;-77
2022/10/28 12:55:17;;;;;;;6.77;4.40;;;20.90;78.50;;;;;;5046913;28;20421;-77
2022/10/28 12:58:24;;;;;;;7.13;4.53;;;21.00;70.90;;;;;;5054801;28;20765;-72
2022/10/28 13:01:14;;;;;;;13.57;4.63;;;21.00;76.00;;;;;;5052411;28;20424;-75
2022/10/28 13:03:40;;;;;;;8.37;6.00;;;20.90;75.80;;;;;;5050280;28;20457;-77
2022/10/28 13:06:27;;;;;;;9.33;3.93;;;20.90;71.60;;;;;;5054781;28;20468;-73
2022/10/28 13:09:15;;;;;;;11.00;4.77;;;20.90;69.60;;;;;;5053747;28;20417;-74
2022/10/28 13:12:15;;;;;;;12.87;5.30;;;20.90;71.60;;;;;;5054509;28;20429;-77
2022/10/28 13:14:46;;;;;;;8.07;4.50;;;20.90;74.70;;;;;;5054347;28;20473;-76